Time;durP1;ratioP1;P1;durP2;ratioP2;P2;SDS_P1;SDS_P2;PMS_P1;PMS_P2;Temp;Humidity;BMP_temperature;BMP_pressure;BME280_temperature;BME280_humidity;BME280_pressure;Samples;Min_cycle;Max_cycle;Signal;HPM_P1;HPM_P2
2022/02/23 00:01:45;;;;;;;17.52;13.45;;;;;;;6.91;62.90;94877.63;4932024;29;20091;-77
2022/02/23 00:04:11;;;;;;;19.55;14.70;;;;;;;6.87;63.13;94879.06;4930843;29;20087;-77
2022/02/23 00:06:36;;;;;;;17.58;14.35;;;;;;;6.89;63.27;94884.81;4932602;29;20039;-78
2022/02/23 00:09:02;;;;;;;17.52;13.32;;;;;;;6.86;63.00;94882.63;4916905;29;20024;-78
2022/02/23 00:11:28;;;;;;;16.83;14.43;;;;;;;6.84;63.00;94889.81;4933434;29;20078;-77
2022/02/23 00:13:53;;;;;;;20.75;15.13;;;;;;;6.78;63.22;94880.28;4932771;29;20043;-78
2022/02/23 00:16:19;;;;;;;20.45;17.15;;;;;;;6.80;63.98;94878.28;4916319;29;20535;-77
2022/02/23 00:18:44;;;;;;;25.30;18.00;;;;;;;6.76;63.87;94880.47;4998640;23;20047;-78
2022/02/23 00:21:10;;;;;;;26.77;18.30;;;;;;;6.74;63.75;94879.09;4953658;28;20035;-78
2022/02/23 00:23:35;;;;;;;27.65;19.05;;;;;;;6.80;63.91;94884.22;4950467;29;20046;-78
2022/02/23 00:26:01;;;;;;;26.02;17.98;;;;;;;6.77;63.40;94878.69;4954475;28;20377;-78
2022/02/23 00:28:26;;;;;;;28.75;18.75;;;;;;;6.78;63.95;94880.28;4954232;28;20049;-78
2022/02/23 00:30:51;;;;;;;24.30;17.98;;;;;;;6.78;64.04;94885.44;4936845;29;20035;-78
2022/02/23 00:33:17;;;;;;;26.08;17.83;;;;;;;6.77;63.32;94878.69;4952881;29;20036;-78
2022/02/23 00:35:42;;;;;;;24.77;16.92;;;;;;;6.78;63.60;94882.84;4927774;29;20032;-78
2022/02/23 00:38:08;;;;;;;29.60;19.48;;;;;;;6.80;63.60;94889.41;4936741;29;20404;-78
2022/02/23 00:40:33;;;;;;;27.73;19.08;;;;;;;6.84;63.29;94882.84;5050564;23;20597;-77
2022/02/23 00:42:59;;;;;;;23.05;17.38;;;;;;;6.82;63.67;94884.03;4970169;28;20027;-77
2022/02/23 00:45:25;;;;;;;27.45;18.13;;;;;;;6.84;63.89;94884.63;4960888;28;20043;-77
2022/02/23 00:47:50;;;;;;;25.08;17.70;;;;;;;6.79;63.27;94887.03;4966643;28;20121;-77
2022/02/23 00:50:15;;;;;;;24.60;17.08;;;;;;;6.77;63.63;94886.44;4960658;28;20039;-77
2022/02/23 00:52:41;;;;;;;25.67;17.73;;;;;;;6.81;63.25;94885.03;4960446;28;20047;-77
2022/02/23 00:55:07;;;;;;;31.23;21.23;;;;;;;6.88;63.34;94893.56;4943655;28;20518;-78
2022/02/23 00:57:33;;;;;;;24.80;17.80;;;;;;;6.84;62.73;94889.81;4960926;28;20047;-78
2022/02/23 00:59:58;;;;;;;23.73;17.42;;;;;;;6.86;63.38;94892.97;4943970;28;20031;-78
2022/02/23 01:02:24;;;;;;;19.65;15.57;;;;;;;6.84;62.85;94890.59;4944788;28;20534;-77
2022/02/23 01:04:50;;;;;;;20.17;16.88;;;;;;;6.82;63.20;94894.38;4958946;28;20039;-77
2022/02/23 01:07:15;;;;;;;21.40;16.50;;;;;;;6.82;62.77;94889.97;4958780;28;20034;-77
2022/02/23 01:09:41;;;;;;;19.35;15.32;;;;;;;6.81;63.27;94896.16;4959211;28;20041;-77
2022/02/23 01:12:07;;;;;;;24.92;16.25;;;;;;;6.84;63.17;94895.78;4954916;23;20508;-77
2022/02/23 01:14:32;;;;;;;20.77;16.00;;;;;;;6.84;62.03;94894.97;4931952;29;20064;-77
2022/02/23 01:16:58;;;;;;;27.63;16.77;;;;;;;6.69;62.57;94884.09;4921638;29;20048;-77
2022/02/23 01:19:23;;;;;;;22.20;17.38;;;;;;;6.70;63.02;94888.28;4904094;29;20036;-77
2022/02/23 01:21:49;;;;;;;24.95;14.85;;;;;;;6.75;62.34;94884.06;4920765;29;20040;-77
2022/02/23 01:24:14;;;;;;;20.08;15.80;;;;;;;6.80;62.56;94886.03;4904870;29;20055;-76
2022/02/23 01:26:40;;;;;;;20.90;17.10;;;;;;;6.72;62.77;94881.91;4891174;29;20452;-77
2022/02/23 01:29:05;;;;;;;23.08;15.35;;;;;;;6.79;62.87;94887.03;4923768;29;20064;-77
2022/02/23 01:31:30;;;;;;;16.58;14.48;;;;;;;6.75;62.57;94880.69;4922959;29;20044;-77
2022/02/23 01:33:56;;;;;;;17.48;15.63;;;;;;;6.76;62.89;94885.66;4924719;29;20720;-79
2022/02/23 01:36:21;;;;;;;18.55;15.82;;;;;;;6.84;62.86;94879.47;4923490;29;20055;-77
2022/02/23 01:38:47;;;;;;;17.00;14.35;;;;;;;6.85;62.45;94883.63;4939398;23;20138;-76
2022/02/23 01:41:17;;;;;;;24.30;16.00;;;;;;;6.82;62.63;94884.03;4925647;29;20032;-78
2022/02/23 01:43:43;;;;;;;20.13;16.23;;;;;;;6.90;61.76;94883.78;4922843;29;20493;-76
2022/02/23 01:46:09;;;;;;;19.00;14.75;;;;;;;6.92;61.95;94889.56;4907545;29;20051;-76
2022/02/23 01:48:34;;;;;;;19.42;15.65;;;;;;;6.94;61.53;94895.31;4922883;29;20067;-76
2022/02/23 01:51:00;;;;;;;18.35;13.93;;;;;;;6.94;61.81;94905.66;4907726;29;20564;-76
2022/02/23 01:53:25;;;;;;;17.58;14.25;;;;;;;6.99;61.26;94897.25;4923286;29;20028;-76
2022/02/23 01:55:51;;;;;;;18.70;14.60;;;;;;;6.96;61.74;94895.88;4922750;29;20051;-76
2022/02/23 01:58:16;;;;;;;17.52;14.38;;;;;;;7.02;61.44;94902.03;4907081;29;20031;-76
2022/02/23 02:00:42;;;;;;;16.88;14.07;;;;;;;6.99;61.09;94903.22;4923649;29;20050;-76
2022/02/23 02:03:07;;;;;;;16.85;14.13;;;;;;;7.00;60.97;94904.84;4907253;29;20423;-76
2022/02/23 02:05:33;;;;;;;19.10;14.30;;;;;;;7.00;61.01;94898.88;4922600;29;20032;-76
2022/02/23 02:07:58;;;;;;;17.88;15.20;;;;;;;6.92;60.75;94902.47;4924345;29;20049;-76
2022/02/23 02:10:24;;;;;;;25.25;16.92;;;;;;;6.89;61.74;94906.28;4890942;29;20047;-76
2022/02/23 02:12:49;;;;;;;19.42;15.82;;;;;;;6.88;61.21;94907.28;4906597;29;20036;-76
2022/02/23 02:15:15;;;;;;;26.05;17.88;;;;;;;6.90;61.20;94909.66;4924346;29;20044;-76
2022/02/23 02:17:41;;;;;;;29.67;18.77;;;;;;;6.96;61.57;94913.97;4924687;29;20043;-76
2022/02/23 02:20:08;;;;;;;31.08;18.27;;;;;;;6.92;61.40;94907.66;4925157;29;20143;-79
2022/02/23 02:22:34;;;;;;;29.38;18.27;;;;;;;6.94;61.68;94905.66;4924636;29;20103;-78
2022/02/23 02:25:02;;;;;;;25.52;17.92;;;;;;;6.93;61.61;94916.97;4910331;29;20436;-78
2022/02/23 02:27:27;;;;;;;29.30;17.95;;;;;;;6.98;61.24;94913.78;4940227;23;20044;-78
2022/02/23 02:29:53;;;;;;;22.75;17.70;;;;;;;6.94;61.51;94926.31;4943408;23;20063;-78
2022/02/23 02:32:18;;;;;;;21.42;17.35;;;;;;;6.93;61.52;94924.75;4936117;29;20132;-78
2022/02/23 02:34:44;;;;;;;23.17;16.42;;;;;;;6.93;61.25;94940.25;4936051;29;20055;-78
2022/02/23 02:37:10;;;;;;;20.95;16.60;;;;;;;6.90;61.69;94930.31;4908725;29;20044;-77
2022/02/23 02:39:36;;;;;;;23.45;16.23;;;;;;;6.92;61.66;94936.88;4923083;29;20051;-77
2022/02/23 02:42:01;;;;;;;22.17;16.23;;;;;;;6.94;61.02;94931.50;4924423;29;20027;-77
2022/02/23 02:44:27;;;;;;;22.73;15.85;;;;;;;6.98;60.78;94935.25;4950847;23;20038;-77
2022/02/23 02:46:52;;;;;;;24.60;16.05;;;;;;;6.97;60.91;94930.28;4962714;28;20525;-77
2022/02/23 02:49:18;;;;;;;18.88;14.10;;;;;;;6.97;61.40;94944.00;4954031;28;20044;-77
2022/02/23 02:51:43;;;;;;;20.77;15.43;;;;;;;6.92;60.93;94943.84;4943404;29;20031;-77
2022/02/23 02:54:08;;;;;;;20.00;14.55;;;;;;;6.96;60.42;94939.84;4927895;29;20511;-78
2022/02/23 02:56:34;;;;;;;17.10;13.63;;;;;;;6.94;60.93;94941.84;4945753;29;20496;-78
2022/02/23 02:59:01;;;;;;;16.27;13.80;;;;;;;6.92;61.20;94943.84;4929438;29;20035;-78
2022/02/23 03:01:27;;;;;;;16.45;13.77;;;;;;;6.92;60.61;94943.84;4958314;29;20043;-78
2022/02/23 03:03:53;;;;;;;15.10;12.98;;;;;;;6.92;60.91;94946.41;4956763;29;20040;-78
2022/02/23 03:06:19;;;;;;;14.80;13.20;;;;;;;6.92;60.63;94951.59;4954474;28;20035;-78
2022/02/23 03:08:45;;;;;;;15.50;13.60;;;;;;;6.96;60.53;94950.19;4942404;29;20058;-77
2022/02/23 03:11:10;;;;;;;16.55;12.55;;;;;;;6.98;60.59;94947.38;4910095;29;20054;-77
2022/02/23 03:13:36;;;;;;;15.98;13.93;;;;;;;7.00;60.59;94948.78;4942883;29;20052;-78
2022/02/23 03:16:02;;;;;;;19.95;14.45;;;;;;;7.00;60.49;94959.13;4926627;29;20039;-78
2022/02/23 03:18:28;;;;;;;20.42;14.43;;;;;;;6.96;60.60;94965.69;4944964;28;20051;-78
2022/02/23 03:20:53;;;;;;;20.05;15.05;;;;;;;6.98;60.28;94957.72;4942602;29;20031;-77
2022/02/23 03:23:18;;;;;;;21.88;14.15;;;;;;;6.90;60.82;94958.75;4942826;29;20035;-78
2022/02/23 03:25:44;;;;;;;19.13;13.90;;;;;;;6.88;61.24;94953.00;4925772;29;20035;-78
2022/02/23 03:28:09;;;;;;;21.17;12.50;;;;;;;6.88;61.20;94958.97;4942045;29;20554;-77
2022/02/23 03:30:35;;;;;;;15.48;12.35;;;;;;;6.92;61.11;94956.75;4943279;29;20094;-77
2022/02/23 03:33:00;;;;;;;19.83;11.95;;;;;;;6.96;60.79;94970.84;4926863;29;20045;-77
2022/02/23 03:35:27;;;;;;;14.90;12.10;;;;;;;6.98;60.25;94970.66;4931767;29;20496;-77
2022/02/23 03:37:56;;;;;;;15.45;11.45;;;;;;;6.96;60.51;94975.22;4947958;29;20044;-77
2022/02/23 03:40:21;;;;;;;22.40;15.77;;;;;;;6.93;61.12;94976.44;4986902;23;20421;-77
2022/02/23 03:42:47;;;;;;;21.60;16.20;;;;;;;6.88;61.18;94989.19;4948445;28;20050;-77
2022/02/23 03:45:12;;;;;;;15.48;13.75;;;;;;;6.91;60.54;94978.44;4932715;29;20044;-77
2022/02/23 03:47:38;;;;;;;17.80;14.20;;;;;;;6.92;60.65;94975.66;4928145;29;20039;-76
2022/02/23 03:50:04;;;;;;;17.33;13.85;;;;;;;6.93;60.32;94982.41;5063813;23;20119;-78
2022/02/23 03:52:29;;;;;;;18.45;14.40;;;;;;;6.90;60.31;94976.84;4945938;28;20538;-77
2022/02/23 03:54:54;;;;;;;17.70;12.60;;;;;;;6.95;59.49;94984.78;4931525;28;20476;-77
2022/02/23 03:57:20;;;;;;;15.05;12.55;;;;;;;6.88;60.50;94986.59;4926170;29;20039;-77
2022/02/23 03:59:45;;;;;;;16.05;12.52;;;;;;;6.93;60.19;94994.53;4923818;29;20028;-76
2022/02/23 04:02:11;;;;;;;15.88;12.45;;;;;;;6.96;60.29;94990.75;4923821;29;20043;-77
2022/02/23 04:04:36;;;;;;;14.07;12.35;;;;;;;6.99;60.20;94993.72;4916500;29;20381;-77
2022/02/23 04:07:02;;;;;;;19.42;12.70;;;;;;;7.01;59.95;94998.69;4929430;29;20039;-79
2022/02/23 04:09:27;;;;;;;13.38;11.82;;;;;;;6.97;60.54;95013.81;4929093;29;20043;-77
2022/02/23 04:11:53;;;;;;;19.85;14.20;;;;;;;6.97;60.42;95024.16;4925367;29;20099;-78
2022/02/23 04:14:18;;;;;;;16.77;12.10;;;;;;;6.93;60.40;95017.81;4922587;29;20044;-77
2022/02/23 04:16:44;;;;;;;15.80;12.15;;;;;;;6.93;60.66;95022.97;4924533;29;20031;-77
2022/02/23 04:19:09;;;;;;;18.08;12.88;;;;;;;6.99;60.21;95024.72;4924129;29;20044;-76
2022/02/23 04:21:35;;;;;;;19.88;13.50;;;;;;;6.95;60.08;95026.16;4929170;29;20056;-77
2022/02/23 04:24:00;;;;;;;21.77;14.43;;;;;;;6.98;60.28;95030.91;4928295;29;20043;-77
2022/02/23 04:26:25;;;;;;;15.23;13.40;;;;;;;6.95;60.31;95030.53;4932151;29;20035;-78
2022/02/23 04:28:51;;;;;;;14.95;12.52;;;;;;;6.91;60.23;95030.13;4934301;29;20040;-79
2022/02/23 04:31:16;;;;;;;13.07;11.48;;;;;;;6.95;60.16;95033.91;4933679;29;20047;-78
2022/02/23 04:33:42;;;;;;;13.93;11.55;;;;;;;7.00;59.75;95039.28;4924977;29;20039;-79
2022/02/23 04:36:09;;;;;;;16.42;12.48;;;;;;;6.96;60.04;95042.44;4932777;29;20048;-78
2022/02/23 04:38:37;;;;;;;13.30;11.50;;;;;;;6.99;60.00;95037.66;4940427;29;20143;-78
2022/02/23 04:41:03;;;;;;;15.93;12.82;;;;;;;6.97;60.01;95044.03;4933477;29;20054;-78
2022/02/23 04:43:33;;;;;;;28.88;14.73;;;;;;;6.97;59.64;95049.22;4927871;29;20063;-77
2022/02/23 04:46:10;;;;;;;18.52;13.27;;;;;;;6.93;59.56;95052.19;4942062;29;20043;-79
2022/02/23 04:48:36;;;;;;;17.10;13.60;;;;;;;6.88;60.17;95051.22;4932467;29;20048;-78
2022/02/23 04:51:02;;;;;;;23.25;15.55;;;;;;;6.82;60.00;95049.44;4939662;29;20051;-80
2022/02/23 04:53:27;;;;;;;17.98;13.60;;;;;;;6.83;60.09;95057.00;4933311;29;20047;-78
2022/02/23 04:55:53;;;;;;;15.85;12.82;;;;;;;6.76;60.06;95063.19;4942475;29;20035;-79
2022/02/23 04:58:18;;;;;;;32.33;18.58;;;;;;;6.69;60.06;95073.53;4924741;29;20040;-79
2022/02/23 05:00:44;;;;;;;21.58;16.30;;;;;;;6.56;60.53;95073.53;4942465;29;20031;-78
2022/02/23 05:03:10;;;;;;;16.80;13.05;;;;;;;6.56;61.17;95074.34;4940681;29;20063;-78
2022/02/23 05:05:35;;;;;;;23.63;15.82;;;;;;;6.60;60.47;95075.53;4936675;29;20083;-79
2022/02/23 05:08:01;;;;;;;20.70;11.68;;;;;;;6.53;60.20;95087.66;4916201;29;20032;-80
2022/02/23 05:10:26;;;;;;;28.20;14.23;;;;;;;6.53;60.14;95084.28;4942482;29;20043;-78
2022/02/23 05:12:52;;;;;;;13.35;11.57;;;;;;;6.45;59.79;95093.00;4941280;29;20059;-80
2022/02/23 05:15:18;;;;;;;18.83;14.38;;;;;;;6.40;60.32;95103.16;4922572;29;20103;-79
2022/02/23 05:17:43;;;;;;;15.85;11.90;;;;;;;6.31;61.04;95089.63;4916660;29;20060;-80
2022/02/23 05:20:10;;;;;;;18.63;12.45;;;;;;;6.24;60.65;95098.38;4917226;29;20039;-80
2022/02/23 05:22:35;;;;;;;22.70;11.98;;;;;;;6.14;61.13;95114.25;4928786;29;20032;-79
2022/02/23 05:25:01;;;;;;;20.92;12.57;;;;;;;6.06;60.99;95108.50;4925076;29;20099;-79
2022/02/23 05:27:26;;;;;;;20.02;11.60;;;;;;;5.97;61.30;95120.75;4911137;29;20040;-78
2022/02/23 05:29:52;;;;;;;14.40;11.07;;;;;;;5.94;60.96;95119.38;4904914;29;20585;-80
2022/02/23 05:32:18;;;;;;;15.25;11.43;;;;;;;5.87;62.01;95131.44;4936317;29;20070;-79
2022/02/23 05:34:44;;;;;;;19.88;11.77;;;;;;;5.92;61.54;95139.44;4926699;29;20036;-79
2022/02/23 05:37:10;;;;;;;13.38;10.45;;;;;;;5.92;61.29;95139.44;4904913;29;20515;-79
2022/02/23 05:39:35;;;;;;;20.65;12.50;;;;;;;5.86;62.23;95144.56;4912089;29;20044;-78
2022/02/23 05:42:01;;;;;;;27.95;17.75;;;;;;;5.86;61.54;95144.56;4941570;29;20117;-78
2022/02/23 05:44:26;;;;;;;22.17;13.80;;;;;;;5.85;61.41;95135.97;4928736;29;20072;-79
2022/02/23 05:46:52;;;;;;;20.88;14.05;;;;;;;5.89;60.92;95147.53;4931465;29;20052;-77
2022/02/23 05:49:17;;;;;;;26.23;15.82;;;;;;;5.88;61.77;95145.94;4926320;29;20047;-81
2022/02/23 05:51:43;;;;;;;25.38;17.23;;;;;;;5.94;61.62;95152.94;4929618;29;20044;-81
2022/02/23 05:54:09;;;;;;;25.73;15.50;;;;;;;5.94;61.36;95152.94;4915039;29;20046;-79
2022/02/23 05:56:34;;;;;;;20.48;14.18;;;;;;;5.96;61.18;95161.28;4929876;29;20095;-80
2022/02/23 05:59:00;;;;;;;26.20;14.93;;;;;;;6.02;60.96;95162.31;4929732;29;20241;-79
2022/02/23 06:01:25;;;;;;;44.35;16.60;;;;;;;6.09;61.12;95168.25;4932961;29;20040;-79
2022/02/23 06:03:51;;;;;;;23.75;14.38;;;;;;;6.17;60.70;95167.28;4943459;29;20031;-77
2022/02/23 06:06:16;;;;;;;19.42;12.68;;;;;;;6.25;60.69;95178.22;4945557;29;20445;-79
2022/02/23 06:08:42;;;;;;;20.50;14.00;;;;;;;6.29;60.62;95176.84;4921242;29;20044;-79
2022/02/23 06:11:08;;;;;;;20.35;13.60;;;;;;;6.28;59.54;95185.59;4919802;29;20095;-79
2022/02/23 06:13:34;;;;;;;23.35;13.75;;;;;;;6.25;60.26;95183.41;4927283;29;20036;-79
2022/02/23 06:16:01;;;;;;;21.50;12.25;;;;;;;6.23;60.25;95189.75;4910550;29;20079;-79
2022/02/23 06:18:26;;;;;;;17.05;12.48;;;;;;;6.20;60.27;95196.09;4927936;29;20032;-79
2022/02/23 06:20:54;;;;;;;21.08;13.50;;;;;;;6.24;59.95;95202.47;4918493;29;20147;-79
2022/02/23 06:23:21;;;;;;;21.13;12.27;;;;;;;6.24;60.28;95199.88;4930147;29;20035;-79
2022/02/23 06:25:46;;;;;;;25.95;15.10;;;;;;;6.25;60.37;95205.84;4928207;29;20030;-79
2022/02/23 06:28:12;;;;;;;28.15;15.15;;;;;;;6.27;60.11;95209.81;4929267;29;20036;-79
2022/02/23 06:30:38;;;;;;;23.92;15.50;;;;;;;6.31;60.04;95218.75;4912764;29;20036;-80
2022/02/23 06:33:03;;;;;;;23.45;16.23;;;;;;;6.42;60.27;95222.56;4919282;29;20044;-81
2022/02/23 06:35:29;;;;;;;27.42;18.02;;;;;;;6.49;60.35;95227.75;4918815;29;20406;-79
2022/02/23 06:37:54;;;;;;;26.90;17.75;;;;;;;6.54;60.29;95225.38;4928934;29;20099;-78
2022/02/23 06:40:20;;;;;;;30.35;17.85;;;;;;;6.62;59.66;95232.94;4936669;29;20044;-80
2022/02/23 06:42:46;;;;;;;27.33;16.00;;;;;;;6.68;59.97;95231.38;4919321;29;20075;-79
2022/02/23 06:45:11;;;;;;;28.85;15.70;;;;;;;6.74;60.50;95228.78;4920005;29;20108;-81
2022/02/23 06:47:37;;;;;;;39.03;23.20;;;;;;;6.78;59.59;95232.56;4927475;29;20496;-79
2022/02/23 06:50:03;;;;;;;25.73;17.27;;;;;;;6.83;58.67;95235.38;4928450;29;20043;-81
2022/02/23 06:52:28;;;;;;;30.48;20.40;;;;;;;6.83;58.92;95243.13;4928478;29;20047;-80
2022/02/23 06:54:55;;;;;;;46.03;26.88;;;;;;;6.84;59.40;95241.34;4903851;29;20067;-80
2022/02/23 06:57:21;;;;;;;26.23;18.23;;;;;;;6.88;58.64;95238.16;4928207;29;20032;-82
2022/02/23 06:59:46;;;;;;;20.65;15.45;;;;;;;6.90;58.26;95240.53;4939753;29;20039;-79
2022/02/23 07:02:12;;;;;;;22.90;16.75;;;;;;;7.00;58.46;95248.69;4941045;29;20044;-79
2022/02/23 07:04:38;;;;;;;20.23;14.68;;;;;;;7.07;58.21;95246.91;4940334;29;20045;-79
2022/02/23 07:07:03;;;;;;;24.15;15.50;;;;;;;7.08;57.92;95248.50;4920520;29;20512;-81
2022/02/23 07:09:29;;;;;;;33.03;21.15;;;;;;;7.11;58.68;95247.28;4905384;29;20040;-80
2022/02/23 07:11:54;;;;;;;27.40;16.00;;;;;;;7.16;58.36;95250.09;4926445;29;20032;-81
2022/02/23 07:14:20;;;;;;;21.25;15.68;;;;;;;7.23;58.27;95251.66;4903174;29;20043;-80
2022/02/23 07:16:45;;;;;;;22.08;15.27;;;;;;;7.27;58.27;95241.72;4929373;29;20036;-80
2022/02/23 07:19:11;;;;;;;23.50;15.40;;;;;;;7.29;57.55;95244.09;4928536;29;20511;-80
2022/02/23 07:21:38;;;;;;;16.67;13.07;;;;;;;7.37;57.53;95236.13;4914239;29;20042;-80
2022/02/23 07:24:04;;;;;;;16.95;12.85;;;;;;;7.50;57.11;95249.06;4911418;29;20044;-80
2022/02/23 07:26:29;;;;;;;23.45;15.88;;;;;;;7.60;56.82;95246.84;4904140;29;20035;-80
2022/02/23 07:28:55;;;;;;;25.42;14.40;;;;;;;7.65;57.19;95239.28;4926921;29;20047;-80
2022/02/23 07:31:21;;;;;;;28.25;14.45;;;;;;;7.72;57.09;95240.06;4919402;29;20403;-80
2022/02/23 07:33:47;;;;;;;23.17;13.75;;;;;;;7.79;56.74;95253.75;4902183;29;20050;-80
2022/02/23 07:36:12;;;;;;;29.98;20.67;;;;;;;7.91;56.31;95238.41;4927584;29;20043;-80
2022/02/23 07:38:38;;;;;;;24.85;13.93;;;;;;;7.97;56.13;95247.13;4911853;29;20575;-80
2022/02/23 07:41:07;;;;;;;31.05;21.00;;;;;;;7.99;55.92;95245.94;4927061;29;20043;-80
2022/02/23 07:43:34;;;;;;;20.17;13.15;;;;;;;8.10;55.58;95257.44;4894958;29;20040;-80
2022/02/23 07:46:00;;;;;;;24.13;16.33;;;;;;;8.19;55.56;95256.22;4918565;29;20036;-78
2022/02/23 07:48:25;;;;;;;20.33;14.80;;;;;;;8.29;55.07;95248.78;4926596;29;20103;-80
2022/02/23 07:50:51;;;;;;;22.13;14.52;;;;;;;8.42;54.05;95250.56;4910317;29;20036;-79
2022/02/23 07:53:16;;;;;;;29.90;14.30;;;;;;;8.52;53.41;95255.31;4927460;29;20031;-79
2022/02/23 07:55:42;;;;;;;17.02;13.77;;;;;;;8.53;53.59;95259.50;4928440;29;20052;-79
2022/02/23 07:58:08;;;;;;;22.08;13.88;;;;;;;8.47;53.01;95257.75;4929235;29;20055;-79
2022/02/23 08:00:33;;;;;;;21.08;13.15;;;;;;;8.59;53.19;95256.06;4911429;29;20075;-77
2022/02/23 08:02:59;;;;;;;16.38;10.63;;;;;;;8.57;53.38;95268.44;4925786;29;20040;-80
2022/02/23 08:05:24;;;;;;;15.27;9.20;;;;;;;8.49;52.89;95260.91;4927813;29;20035;-79
2022/02/23 08:07:52;;;;;;;13.13;9.57;;;;;;;8.39;52.50;95267.31;4907334;29;20027;-77
2022/02/23 08:10:18;;;;;;;9.60;8.15;;;;;;;8.31;52.56;95271.94;4923232;29;20071;-78
2022/02/23 08:12:44;;;;;;;14.18;10.10;;;;;;;8.27;53.26;95270.72;4924863;29;20031;-78
2022/02/23 08:20:41;;;;;;;11.85;8.60;;;;;;;8.61;51.74;95264.41;4923849;29;20134;-78
2022/02/23 08:23:07;;;;;;;14.52;9.25;;;;;;;8.72;51.35;95256.00;4924966;29;20139;-79
2022/02/23 08:25:33;;;;;;;15.43;9.57;;;;;;;8.85;51.81;95255.91;4924310;29;20520;-78
2022/02/23 08:27:58;;;;;;;19.40;10.30;;;;;;;8.87;51.06;95253.91;4924724;29;20026;-78
2022/02/23 08:30:24;;;;;;;14.75;9.23;;;;;;;8.98;51.65;95261.00;4906620;29;20047;-78
2022/02/23 08:32:49;;;;;;;11.95;9.63;;;;;;;9.13;50.54;95258.13;4900599;29;20067;-78
2022/02/23 08:35:15;;;;;;;15.13;10.30;;;;;;;9.23;50.61;95263.59;4925141;29;20028;-78
2022/02/23 08:37:40;;;;;;;18.70;9.07;;;;;;;9.28;50.42;95258.59;4912450;29;20042;-78
2022/02/23 08:40:07;;;;;;;23.90;9.55;;;;;;;9.36;49.89;95267.91;4928054;29;20035;-78
2022/02/23 08:42:32;;;;;;;18.27;10.05;;;;;;;9.50;50.77;95268.59;4912706;29;20107;-78
2022/02/23 08:44:57;;;;;;;17.15;11.85;;;;;;;9.73;49.90;95255.78;4926906;29;20048;-78
2022/02/23 08:47:25;;;;;;;19.55;10.82;;;;;;;9.98;49.39;95253.13;4927674;29;20036;-78
2022/02/23 08:49:52;;;;;;;29.20;16.20;;;;;;;10.30;48.42;95245.97;4926713;29;20491;-78
2022/02/23 08:52:17;;;;;;;26.67;15.65;;;;;;;10.61;47.00;95239.00;4913118;29;20054;-78
2022/02/23 08:54:43;;;;;;;23.23;13.90;;;;;;;10.90;46.26;95243.38;4927379;29;20024;-80
2022/02/23 08:57:09;;;;;;;17.38;11.15;;;;;;;11.01;46.36;95249.59;4927366;29;20051;-78
2022/02/23 08:59:35;;;;;;;14.57;10.15;;;;;;;11.20;45.96;95255.53;4918583;29;20051;-78
2022/02/23 09:02:01;;;;;;;28.08;14.15;;;;;;;11.42;45.10;95251.38;4923911;29;20107;-77
2022/02/23 09:04:26;;;;;;;15.65;10.65;;;;;;;11.64;44.70;95259.41;4908247;29;20115;-78
2022/02/23 09:06:52;;;;;;;15.75;10.85;;;;;;;11.74;43.94;95262.25;4925480;29;20083;-76
2022/02/23 09:09:18;;;;;;;19.25;13.27;;;;;;;11.88;44.29;95261.03;4911135;29;20040;-77
2022/02/23 09:11:44;;;;;;;21.67;13.35;;;;;;;11.91;43.83;95263.16;4928996;29;20055;-78
2022/02/23 09:14:10;;;;;;;19.05;11.07;;;;;;;11.91;43.05;95263.16;4926860;29;20052;-78
2022/02/23 09:16:36;;;;;;;13.32;9.55;;;;;;;11.81;43.50;95257.72;4923948;29;20432;-81
2022/02/23 09:19:01;;;;;;;16.38;9.00;;;;;;;11.76;43.13;95252.38;4925230;29;20091;-79
2022/02/23 09:21:27;;;;;;;12.70;9.48;;;;;;;11.72;44.27;95257.28;4908522;29;20059;-80
2022/02/23 09:23:52;;;;;;;26.27;9.65;;;;;;;11.76;43.81;95267.22;4927162;29;20032;-80
2022/02/23 09:28:48;;;;;;;13.30;9.80;;;;;;;11.51;44.83;95270.03;5065604;23;20051;-80
2022/02/23 09:31:14;;;;;;;15.20;10.30;;;;;;;11.29;44.37;95270.59;4954409;28;20067;-80
2022/02/23 09:33:40;;;;;;;18.30;12.02;;;;;;;11.07;45.06;95266.94;4940791;29;20027;-80
2022/02/23 09:36:06;;;;;;;20.98;11.52;;;;;;;10.85;46.42;95271.84;4942189;29;20050;-80
2022/02/23 09:38:32;;;;;;;22.20;10.90;;;;;;;10.95;45.89;95264.31;4941002;29;20058;-81
2022/02/23 09:40:59;;;;;;;22.10;10.82;;;;;;;10.80;46.25;95275.13;4955445;29;20038;-80
2022/02/23 09:43:24;;;;;;;16.98;11.30;;;;;;;10.70;46.19;95274.84;4954376;29;20034;-80
2022/02/23 09:45:54;;;;;;;13.05;10.82;;;;;;;10.61;46.38;95273.59;4931893;29;20027;-80
2022/02/23 09:48:28;;;;;;;19.38;12.10;;;;;;;10.56;46.74;95278.63;4939898;29;20435;-79
2022/02/23 09:50:54;;;;;;;17.67;10.45;;;;;;;10.67;46.42;95279.72;4956362;29;20496;-79
2022/02/23 09:53:19;;;;;;;8.32;7.18;;;;;;;10.72;46.14;95278.03;4941429;29;20058;-80
2022/02/23 09:55:45;;;;;;;10.38;7.65;;;;;;;10.58;45.64;95284.44;4941816;29;20042;-80
2022/02/23 09:58:11;;;;;;;23.05;16.20;;;;;;;10.62;46.38;95276.97;4962008;29;20042;-80
2022/02/23 10:00:36;;;;;;;21.42;13.48;;;;;;;10.76;46.49;95271.38;4959261;29;20035;-80
2022/02/23 10:03:02;;;;;;;16.35;7.00;;;;;;;10.72;44.81;95272.03;4956489;29;20049;-80
2022/02/23 10:05:28;;;;;;;10.82;8.15;;;;;;;10.60;45.80;95279.00;4957193;29;20407;-78
2022/02/23 10:08:03;;;;;;;18.05;8.25;;;;;;;10.59;45.13;95273.03;4934834;29;20031;-78
2022/02/23 10:10:33;;;;;;;16.25;9.27;;;;;;;10.63;46.16;95268.16;4955416;29;20044;-79
2022/02/23 10:13:03;;;;;;;19.17;9.80;;;;;;;10.80;45.45;95267.31;4940328;29;20059;-79
2022/02/23 10:15:28;;;;;;;13.57;7.63;;;;;;;10.77;44.94;95259.97;4942645;29;20063;-80
2022/02/23 10:18:05;;;;;;;12.25;8.75;;;;;;;10.77;44.92;95265.16;4958859;29;20027;-81
2022/02/23 10:20:34;;;;;;;14.70;8.90;;;;;;;10.71;44.52;95271.22;4936168;29;20039;-80
2022/02/23 10:23:24;;;;;;;21.83;9.82;;;;;;;10.68;44.82;95269.09;4933614;29;20027;-78
2022/02/23 10:25:58;;;;;;;19.88;11.45;;;;;;;10.73;44.37;95274.41;4952331;29;20729;-79
2022/02/23 10:28:28;;;;;;;12.00;9.00;;;;;;;10.60;44.35;95269.41;4955886;29;20415;-79
2022/02/23 10:30:57;;;;;;;9.70;7.38;;;;;;;10.56;44.31;95257.84;4955402;29;20027;-79
2022/02/23 10:33:42;;;;;;;19.52;9.50;;;;;;;10.61;44.37;95263.19;4924215;29;20058;-79
2022/02/23 10:36:14;;;;;;;7.45;6.10;;;;;;;10.42;43.63;95256.44;4931106;29;20047;-79
2022/02/23 10:38:49;;;;;;;10.82;6.88;;;;;;;10.37;44.90;95258.88;4932418;28;20031;-79
2022/02/23 10:41:31;;;;;;;12.57;6.97;;;;;;;10.48;44.31;95265.97;4953035;28;20090;-78
2022/02/23 10:43:56;;;;;;;13.25;6.82;;;;;;;10.55;44.49;95251.03;4954137;29;20035;-79
2022/02/23 10:46:23;;;;;;;16.58;7.63;;;;;;;10.64;44.44;95249.75;4953590;29;20558;-78
2022/02/23 10:48:51;;;;;;;16.35;8.10;;;;;;;10.71;44.08;95253.03;4955806;29;20046;-79
2022/02/23 10:51:17;;;;;;;16.13;10.27;;;;;;;10.80;44.14;95249.13;4954996;29;20146;-79
2022/02/23 10:53:43;;;;;;;15.65;10.27;;;;;;;10.86;43.45;95238.81;4956047;29;20039;-79
2022/02/23 10:56:32;;;;;;;18.02;9.90;;;;;;;10.91;43.95;95254.56;4937564;29;20090;-78
2022/02/23 10:59:05;;;;;;;13.48;9.35;;;;;;;10.99;43.88;95246.44;4953258;28;20090;-79
2022/02/23 11:01:31;;;;;;;16.13;7.80;;;;;;;10.97;43.79;95243.28;4953482;29;20035;-79
2022/02/23 11:03:56;;;;;;;17.35;11.77;;;;;;;11.07;44.27;95241.72;4939134;29;20411;-79
2022/02/23 11:06:23;;;;;;;29.48;13.23;;;;;;;11.26;43.91;95247.63;4953805;29;20050;-78
2022/02/23 11:08:50;;;;;;;19.30;10.32;;;;;;;11.39;43.40;95241.41;5007338;23;20330;-77
2022/02/23 11:11:17;;;;;;;11.10;6.18;;;;;;;11.44;41.80;95244.13;4958885;29;20062;-78
2022/02/23 11:13:49;;;;;;;10.10;7.53;;;;;;;11.38;42.52;95239.81;4941353;29;20050;-78
2022/02/23 11:16:15;;;;;;;11.83;5.73;;;;;;;11.27;41.76;95238.78;5018234;23;20058;-78
2022/02/23 11:18:57;;;;;;;15.65;8.43;;;;;;;11.26;43.11;95232.00;4987889;23;20310;-79
2022/02/23 11:21:23;;;;;;;19.17;10.52;;;;;;;11.46;42.37;95246.50;4967602;28;20487;-78
2022/02/23 11:23:52;;;;;;;17.38;8.88;;;;;;;11.52;41.76;95235.97;4934938;29;20032;-79
2022/02/23 11:26:19;;;;;;;10.68;5.97;;;;;;;11.53;41.43;95241.97;4934187;29;20028;-78
2022/02/23 11:29:07;;;;;;;7.50;5.80;;;;;;;11.49;41.37;95235.63;4918084;29;20054;-78